createdAt,value
2023-04-18T00:00:28.538Z,10.68
2023-04-18T00:03:32.526Z,10.71
2023-04-18T00:06:36.387Z,10.70
2023-04-18T00:09:41.578Z,10.66
2023-04-18T00:12:45.184Z,10.66
2023-04-18T00:15:48.846Z,10.65
2023-04-18T00:18:52.195Z,10.67
2023-04-18T00:21:55.984Z,10.69
2023-04-18T00:24:58.920Z,10.70
2023-04-18T00:28:02.156Z,10.65
2023-04-18T00:31:05.583Z,10.38
2023-04-18T00:34:08.936Z,10.44
2023-04-18T00:37:13.026Z,10.57
2023-04-18T00:40:18.281Z,10.58
2023-04-18T00:43:23.808Z,10.57
2023-04-18T00:46:27.451Z,10.57
2023-04-18T00:49:30.979Z,10.54
2023-04-18T00:52:36.095Z,10.50
2023-04-18T00:55:40.754Z,10.53
2023-04-18T00:58:44.229Z,10.40
2023-04-18T01:01:47.498Z,10.48
2023-04-18T01:04:52.340Z,10.44
2023-04-18T01:08:01.043Z,10.44
2023-04-18T01:11:05.000Z,10.46
2023-04-18T01:14:09.103Z,10.43
2023-04-18T01:17:14.188Z,10.38
2023-04-18T01:20:17.359Z,10.42
2023-04-18T01:23:22.510Z,10.26
2023-04-18T01:26:25.689Z,10.46
2023-04-18T01:29:29.425Z,10.45
2023-04-18T01:32:32.930Z,10.48
2023-04-18T01:35:36.456Z,10.49
2023-04-18T01:38:39.721Z,10.48
2023-04-18T01:41:43.113Z,10.48
2023-04-18T01:44:46.199Z,10.46
2023-04-18T01:47:49.650Z,10.50
2023-04-18T01:50:53.293Z,10.46
2023-04-18T01:53:56.754Z,10.43
2023-04-18T01:57:00.716Z,10.38
2023-04-18T02:00:06.655Z,10.45
2023-04-18T02:03:17.364Z,10.46
2023-04-18T02:06:21.707Z,10.43
2023-04-18T02:09:24.862Z,10.45
2023-04-18T02:12:28.553Z,10.36
2023-04-18T02:15:31.790Z,10.44
2023-04-18T02:18:37.162Z,10.46
2023-04-18T02:21:42.082Z,10.43
2023-04-18T02:24:47.083Z,10.54
2023-04-18T02:27:52.705Z,10.57
2023-04-18T02:30:56.283Z,10.54
2023-04-18T02:34:00.247Z,10.58
2023-04-18T02:37:04.865Z,10.63
2023-04-18T02:40:09.121Z,10.58
2023-04-18T02:43:12.785Z,10.57
2023-04-18T02:46:16.372Z,10.54
2023-04-18T02:49:21.186Z,10.51
2023-04-18T02:52:26.015Z,10.62
2023-04-18T02:55:29.540Z,10.61
2023-04-18T02:58:36.032Z,10.66
2023-04-18T03:01:41.610Z,10.48
2023-04-18T03:04:45.052Z,10.66
2023-04-18T03:07:48.441Z,10.67
2023-04-18T03:10:51.710Z,10.67
2023-04-18T03:13:56.691Z,10.65
2023-04-18T03:17:00.414Z,10.63
2023-04-18T03:20:04.654Z,10.65
2023-04-18T03:23:07.771Z,10.68
2023-04-18T03:26:13.948Z,10.70
2023-04-18T03:29:17.400Z,10.70
2023-04-18T03:32:22.465Z,10.68
2023-04-18T03:35:26.208Z,10.49
2023-04-18T03:38:29.734Z,10.66
2023-04-18T03:41:33.522Z,10.66
2023-04-18T03:44:37.191Z,10.66
2023-04-18T03:47:40.535Z,10.65
2023-04-18T03:50:44.096Z,10.51
2023-04-18T03:53:47.604Z,10.56
2023-04-18T03:56:53.063Z,10.60
2023-04-18T03:59:56.534Z,10.59
2023-04-18T04:03:00.218Z,10.60
2023-04-18T04:06:04.232Z,10.63
2023-04-18T04:09:07.265Z,10.62
2023-04-18T04:12:10.726Z,10.64
2023-04-18T04:15:13.947Z,10.66
2023-04-18T04:18:19.344Z,10.66
2023-04-18T04:21:22.690Z,10.70
2023-04-18T04:24:26.290Z,10.69
2023-04-18T04:27:30.619Z,10.73
2023-04-18T04:30:34.099Z,10.73
2023-04-18T04:33:42.780Z,10.73
2023-04-18T04:36:48.306Z,10.72
2023-04-18T04:39:52.898Z,10.75
2023-04-18T04:42:58.865Z,10.73
2023-04-18T04:46:04.390Z,10.82
2023-04-18T04:49:08.124Z,10.76
2023-04-18T04:52:11.831Z,10.79
2023-04-18T04:55:19.007Z,10.79
2023-04-18T04:58:23.065Z,10.82
2023-04-18T05:01:30.976Z,10.83
2023-04-18T05:04:34.807Z,10.90
2023-04-18T05:07:39.443Z,10.92
2023-04-18T05:10:43.648Z,10.97
2023-04-18T05:13:47.118Z,11.01
2023-04-18T05:16:50.425Z,11.05
2023-04-18T05:19:54.159Z,11.07
2023-04-18T05:22:57.403Z,11.13
2023-04-18T05:26:00.897Z,11.17
2023-04-18T05:29:04.030Z,11.26
2023-04-18T05:32:07.810Z,11.31
2023-04-18T05:35:10.816Z,11.39
2023-04-18T05:38:14.149Z,11.45
2023-04-18T05:41:17.245Z,11.50
2023-04-18T05:44:21.180Z,11.55
2023-04-18T05:47:27.023Z,11.63
2023-04-18T05:50:32.048Z,11.68
2023-04-18T05:53:35.194Z,11.73
2023-04-18T05:56:39.199Z,11.76
2023-04-18T05:59:42.630Z,11.79
2023-04-18T06:02:46.631Z,11.88
2023-04-18T06:05:50.534Z,11.91
2023-04-18T06:08:54.460Z,11.90
2023-04-18T06:11:58.089Z,11.97
2023-04-18T06:15:01.615Z,12.06
2023-04-18T06:18:05.462Z,12.10
2023-04-18T06:21:08.813Z,12.20
2023-04-18T06:24:12.559Z,12.24
2023-04-18T06:27:28.264Z,12.22
2023-04-18T06:30:34.975Z,12.22
2023-04-18T06:33:38.207Z,12.31
2023-04-18T06:36:41.597Z,12.39
2023-04-18T06:39:45.009Z,12.42
2023-04-18T06:42:48.640Z,12.44
2023-04-18T06:45:51.849Z,12.49
2023-04-18T06:48:55.590Z,12.62
2023-04-18T06:51:59.224Z,12.66
2023-04-18T06:55:02.611Z,12.68
2023-04-18T06:58:05.950Z,12.89
2023-04-18T07:01:10.578Z,13.06
2023-04-18T07:04:14.099Z,13.03
2023-04-18T07:07:17.982Z,12.97
2023-04-18T07:10:21.314Z,12.93
2023-04-18T07:13:24.730Z,12.88
2023-04-18T07:16:27.851Z,12.85
2023-04-18T07:19:31.338Z,12.83
2023-04-18T07:22:34.542Z,12.88
2023-04-18T07:25:38.975Z,12.96
2023-04-18T07:28:42.203Z,12.91
2023-04-18T07:31:49.297Z,12.90
2023-04-18T07:34:52.943Z,12.96
2023-04-18T07:37:56.271Z,13.05
2023-04-18T07:41:00.717Z,13.06
2023-04-18T07:44:04.261Z,13.10
2023-04-18T07:47:11.702Z,13.26
2023-04-18T07:50:15.166Z,13.43
2023-04-18T07:53:18.201Z,13.68
2023-04-18T07:56:21.758Z,13.86
2023-04-18T07:59:29.014Z,13.88
2023-04-18T08:02:36.158Z,14.01
2023-04-18T08:05:41.300Z,14.26
2023-04-18T08:08:44.661Z,14.59
2023-04-18T08:11:49.004Z,14.66
2023-04-18T08:14:52.108Z,14.72
2023-04-18T08:17:56.435Z,14.84
2023-04-18T08:20:59.627Z,14.85
2023-04-18T08:24:03.021Z,15.03
2023-04-18T08:27:06.621Z,15.28
2023-04-18T08:30:10.678Z,15.22
2023-04-18T08:33:14.021Z,15.41
2023-04-18T08:36:17.717Z,15.31
2023-04-18T08:39:20.857Z,15.67
2023-04-18T08:42:24.485Z,15.79
2023-04-18T08:45:28.970Z,16.19
2023-04-18T08:48:32.757Z,16.78
2023-04-18T08:51:40.009Z,17.51
2023-04-18T08:54:45.403Z,17.74
2023-04-18T08:57:50.527Z,17.72
2023-04-18T09:00:55.250Z,17.82
2023-04-18T09:03:58.860Z,17.33
2023-04-18T09:07:08.113Z,17.35
2023-04-18T09:10:12.759Z,16.97
2023-04-18T09:13:47.625Z,17.46
2023-04-18T09:16:51.006Z,17.56
2023-04-18T09:19:54.687Z,17.66
2023-04-18T09:23:00.887Z,18.86
2023-04-18T09:26:05.268Z,19.45
2023-04-18T09:29:09.357Z,18.70
2023-04-18T09:32:27.545Z,18.48
2023-04-18T09:35:31.461Z,18.40
2023-04-18T09:38:41.389Z,18.05
2023-04-18T09:42:02.647Z,17.37
2023-04-18T09:45:08.588Z,17.56
2023-04-18T09:48:11.552Z,17.38
2023-04-18T09:51:16.926Z,17.29
2023-04-18T09:54:25.417Z,17.52
2023-04-18T09:57:31.078Z,17.62
2023-04-18T10:00:36.569Z,17.91
2023-04-18T10:03:45.900Z,17.86
2023-04-18T10:06:49.433Z,17.53
2023-04-18T10:09:53.895Z,17.30
2023-04-18T10:12:59.098Z,17.18
2023-04-18T10:16:03.209Z,17.33
2023-04-18T10:19:22.000Z,17.08
2023-04-18T10:22:28.595Z,17.28
2023-04-18T10:25:41.180Z,17.43
2023-04-18T10:28:58.065Z,17.49
2023-04-18T10:32:07.054Z,17.67
2023-04-18T10:35:11.344Z,17.61
2023-04-18T10:38:17.516Z,17.49
2023-04-18T10:41:29.674Z,17.71
2023-04-18T10:44:33.059Z,18.10
2023-04-18T10:47:36.440Z,18.44
2023-04-18T10:51:17.508Z,18.43
2023-04-18T10:54:35.870Z,18.50
2023-04-18T10:57:51.622Z,18.31
2023-04-18T11:00:56.405Z,18.28
2023-04-18T11:04:00.028Z,17.96
2023-04-18T11:07:03.947Z,17.57
2023-04-18T11:10:09.810Z,17.81
2023-04-18T11:13:13.397Z,17.94
2023-04-18T11:16:34.329Z,18.17
2023-04-18T11:19:37.738Z,18.42
2023-04-18T11:22:58.577Z,18.79
2023-04-18T11:26:03.901Z,19.09
2023-04-18T11:29:07.723Z,19.47
2023-04-18T11:32:11.365Z,19.34
2023-04-18T11:35:16.130Z,19.38
2023-04-18T11:38:19.520Z,19.51
2023-04-18T11:41:23.045Z,19.33
2023-04-18T11:44:27.169Z,19.82
2023-04-18T11:47:34.501Z,20.58
2023-04-18T11:50:38.182Z,21.11
2023-04-18T11:53:41.395Z,20.62
2023-04-18T11:56:49.014Z,20.70
2023-04-18T11:59:54.631Z,20.51
2023-04-18T12:02:59.308Z,20.61
2023-04-18T12:06:03.373Z,20.04
2023-04-18T12:09:06.832Z,19.53
2023-04-18T12:12:10.442Z,19.38
2023-04-18T12:15:15.498Z,19.17
2023-04-18T12:18:22.017Z,20.38
2023-04-18T12:21:29.519Z,21.78
2023-04-18T12:24:33.010Z,23.17
2023-04-18T12:27:54.796Z,22.73
2023-04-18T12:30:59.036Z,21.93
2023-04-18T12:34:02.282Z,20.53
2023-04-18T12:37:05.744Z,19.46
2023-04-18T12:40:11.006Z,20.54
2023-04-18T12:43:14.854Z,21.73
2023-04-18T12:46:18.015Z,21.86
2023-04-18T12:49:21.621Z,21.68
2023-04-18T12:52:24.751Z,21.59
2023-04-18T12:55:29.238Z,21.66
2023-04-18T12:58:32.462Z,21.46
2023-04-18T13:01:36.592Z,21.29
2023-04-18T13:04:39.905Z,21.42
2023-04-18T13:07:44.378Z,21.39
2023-04-18T13:10:48.886Z,21.39
2023-04-18T13:13:52.251Z,21.94
2023-04-18T13:16:55.485Z,22.39
2023-04-18T13:19:58.844Z,22.32
2023-04-18T13:23:04.992Z,22.31
2023-04-18T13:26:08.777Z,21.70
2023-04-18T13:29:11.825Z,21.33
2023-04-18T13:32:15.290Z,21.04
2023-04-18T13:35:18.769Z,20.76
2023-04-18T13:38:22.051Z,20.83
2023-04-18T13:41:25.310Z,20.62
2023-04-18T13:44:33.979Z,20.88
2023-04-18T13:47:37.650Z,20.09
2023-04-18T13:50:45.173Z,19.40
2023-04-18T13:53:54.229Z,19.32
2023-04-18T13:56:59.775Z,19.59
2023-04-18T14:00:03.707Z,20.20
2023-04-18T14:03:15.148Z,20.24
2023-04-18T14:06:18.536Z,20.33
2023-04-18T14:09:21.698Z,20.45
2023-04-18T14:12:25.062Z,20.67
2023-04-18T14:15:28.197Z,20.47
2023-04-18T14:18:31.773Z,20.09
2023-04-18T14:21:35.985Z,20.27
2023-04-18T14:24:39.516Z,20.18
2023-04-18T14:27:48.181Z,20.18
2023-04-18T14:30:58.119Z,20.08
2023-04-18T14:34:01.780Z,19.69
2023-04-18T14:37:05.185Z,19.89
2023-04-18T14:40:09.809Z,20.08
2023-04-18T14:43:13.332Z,19.83
2023-04-18T14:46:17.057Z,20.03
2023-04-18T14:49:21.781Z,19.75
2023-04-18T14:52:24.888Z,20.06
2023-04-18T14:55:29.793Z,19.89
2023-04-18T14:58:33.160Z,20.04
2023-04-18T15:01:36.729Z,20.18
2023-04-18T15:04:40.172Z,19.52
2023-04-18T15:07:44.943Z,18.89
2023-04-18T15:10:48.133Z,18.37
2023-04-18T15:13:52.156Z,18.07
2023-04-18T15:16:55.414Z,17.97
2023-04-18T15:19:59.197Z,17.90
2023-04-18T15:23:03.037Z,17.93
2023-04-18T15:26:06.731Z,18.07
2023-04-18T15:29:10.209Z,18.28
2023-04-18T15:32:14.551Z,18.46
2023-04-18T15:35:18.355Z,18.27
2023-04-18T15:38:22.252Z,18.24
2023-04-18T15:41:26.740Z,18.38
2023-04-18T15:44:30.893Z,18.17
2023-04-18T15:47:34.857Z,18.19
2023-04-18T15:50:39.524Z,18.15
2023-04-18T15:53:42.589Z,18.17
2023-04-18T15:56:45.941Z,18.22
2023-04-18T15:59:49.709Z,18.22
2023-04-18T16:02:53.177Z,18.33
2023-04-18T16:05:56.630Z,18.12
2023-04-18T16:08:59.733Z,17.98
2023-04-18T16:12:04.576Z,17.83
2023-04-18T16:15:09.547Z,17.52
2023-04-18T16:18:13.258Z,17.31
2023-04-18T16:21:16.545Z,17.11
2023-04-18T16:24:22.386Z,16.94
2023-04-18T16:27:25.830Z,16.88
2023-04-18T16:30:29.235Z,16.80
2023-04-18T16:33:33.183Z,16.73
2023-04-18T16:36:38.960Z,16.68
2023-04-18T16:39:43.121Z,16.60
2023-04-18T16:42:48.376Z,16.50
2023-04-18T16:45:51.569Z,16.42
2023-04-18T16:48:55.937Z,16.28
2023-04-18T16:51:58.990Z,16.19
2023-04-18T16:55:02.980Z,15.99
2023-04-18T16:58:06.026Z,15.87
2023-04-18T17:01:09.401Z,15.73
2023-04-18T17:04:15.486Z,15.57
2023-04-18T17:07:18.923Z,15.43
2023-04-18T17:10:22.216Z,15.28
2023-04-18T17:13:27.243Z,15.18
2023-04-18T17:16:30.739Z,15.06
2023-04-18T17:19:35.090Z,14.84
2023-04-18T17:22:38.788Z,14.74
2023-04-18T17:25:42.619Z,14.64
2023-04-18T17:28:47.489Z,14.42
2023-04-18T17:31:51.978Z,14.13
2023-04-18T17:34:56.094Z,13.84
2023-04-18T17:38:01.617Z,13.56
2023-04-18T17:41:06.000Z,13.41
2023-04-18T17:44:10.842Z,13.20
2023-04-18T17:47:14.396Z,13.01
2023-04-18T17:50:18.646Z,12.85
2023-04-18T17:53:23.540Z,12.69
2023-04-18T17:56:31.853Z,12.59
2023-04-18T17:59:38.068Z,12.51
2023-04-18T18:02:46.194Z,12.44
2023-04-18T18:05:56.111Z,12.34
2023-04-18T18:09:00.185Z,12.26
2023-04-18T18:12:04.385Z,12.29
2023-04-18T18:15:09.257Z,12.20
2023-04-18T18:18:13.889Z,12.16
2023-04-18T18:21:19.559Z,12.16
2023-04-18T18:24:26.876Z,12.07
2023-04-18T18:27:30.857Z,12.06
2023-04-18T18:30:38.090Z,11.95
2023-04-18T18:33:41.691Z,11.84
2023-04-18T18:36:47.060Z,11.93
2023-04-18T18:39:51.773Z,12.05
2023-04-18T18:42:58.980Z,12.13
2023-04-18T18:46:04.052Z,12.20
2023-04-18T18:49:09.942Z,12.22
2023-04-18T18:52:15.467Z,12.26
2023-04-18T18:55:20.699Z,12.35
2023-04-18T18:58:29.105Z,12.34
2023-04-18T19:01:35.524Z,12.40
2023-04-18T19:04:39.351Z,12.45
2023-04-18T19:07:44.160Z,12.41
2023-04-18T19:10:48.556Z,12.49
2023-04-18T19:13:56.180Z,12.42
2023-04-18T19:17:00.269Z,12.47
2023-04-18T19:20:06.017Z,12.43
2023-04-18T19:23:14.337Z,12.42
2023-04-18T19:26:19.867Z,12.41
2023-04-18T19:29:24.805Z,12.42
2023-04-18T19:32:29.021Z,12.37
2023-04-18T19:35:34.813Z,12.33
2023-04-18T19:38:42.035Z,12.27
2023-04-18T19:41:47.691Z,12.24
2023-04-18T19:44:53.093Z,12.27
2023-04-18T19:47:56.682Z,12.32
2023-04-18T19:51:02.072Z,12.23
2023-04-18T19:54:07.725Z,12.19
2023-04-18T19:57:13.006Z,12.13
2023-04-18T20:00:20.467Z,12.08
2023-04-18T20:03:26.222Z,12.07
2023-04-18T20:06:30.416Z,12.10
2023-04-18T20:09:36.100Z,12.05
2023-04-18T20:12:42.729Z,12.04
2023-04-18T20:15:47.106Z,12.10
2023-04-18T20:18:54.670Z,12.03
2023-04-18T20:21:59.544Z,11.97
2023-04-18T20:25:05.392Z,12.00
2023-04-18T20:28:09.629Z,12.06
2023-04-18T20:31:14.462Z,12.18
2023-04-18T20:34:20.149Z,12.17
2023-04-18T20:37:25.475Z,12.10
2023-04-18T20:40:29.538Z,12.07
2023-04-18T20:43:37.877Z,11.82
2023-04-18T20:46:43.389Z,12.04
2023-04-18T20:49:48.328Z,12.07
2023-04-18T20:52:55.369Z,12.10
2023-04-18T20:56:03.134Z,12.12
2023-04-18T20:59:07.227Z,12.13
2023-04-18T21:02:10.942Z,12.14
2023-04-18T21:05:15.713Z,12.09
2023-04-18T21:08:19.473Z,11.96
2023-04-18T21:11:24.237Z,11.95
2023-04-18T21:14:28.643Z,11.96
2023-04-18T21:17:32.341Z,11.97
2023-04-18T21:20:36.945Z,11.91
2023-04-18T21:23:44.487Z,11.81
2023-04-18T21:26:47.573Z,11.69
2023-04-18T21:29:51.119Z,11.59
2023-04-18T21:32:54.347Z,11.57
2023-04-18T21:35:57.869Z,11.50
2023-04-18T21:39:01.954Z,11.45
2023-04-18T21:42:05.345Z,11.32
2023-04-18T21:45:09.703Z,11.39
2023-04-18T21:48:13.374Z,11.36
2023-04-18T21:51:17.207Z,11.33
2023-04-18T21:54:21.125Z,11.33
2023-04-18T21:57:24.297Z,11.32
2023-04-18T22:00:27.832Z,11.29
2023-04-18T22:03:34.227Z,11.36
2023-04-18T22:06:38.010Z,11.31
2023-04-18T22:09:43.584Z,11.29
2023-04-18T22:12:46.686Z,11.35
2023-04-18T22:15:51.645Z,11.21
2023-04-18T22:18:56.213Z,11.30
2023-04-18T22:21:59.661Z,11.26
2023-04-18T22:25:02.788Z,11.06
2023-04-18T22:28:06.565Z,11.26
2023-04-18T22:31:10.313Z,11.25
2023-04-18T22:34:14.724Z,11.32
2023-04-18T22:37:18.080Z,11.29
2023-04-18T22:40:21.735Z,11.30
2023-04-18T22:43:25.186Z,11.32
2023-04-18T22:46:28.760Z,11.37
2023-04-18T22:49:33.216Z,11.46
2023-04-18T22:52:36.760Z,11.47
2023-04-18T22:55:44.308Z,11.47
2023-04-18T22:58:47.707Z,11.54
2023-04-18T23:01:51.125Z,11.48
2023-04-18T23:04:54.886Z,11.55
2023-04-18T23:08:00.566Z,11.58
2023-04-18T23:11:05.408Z,11.70
2023-04-18T23:14:11.362Z,11.69
2023-04-18T23:17:16.097Z,11.69
2023-04-18T23:20:21.733Z,11.56
2023-04-18T23:23:25.077Z,11.61
2023-04-18T23:26:29.053Z,11.55
2023-04-18T23:29:38.427Z,11.52
2023-04-18T23:32:41.824Z,11.49
2023-04-18T23:35:46.471Z,11.46
2023-04-18T23:38:49.776Z,11.40
2023-04-18T23:42:11.674Z,11.32
2023-04-18T23:45:16.064Z,11.26
2023-04-18T23:48:19.357Z,11.20
2023-04-18T23:51:22.655Z,11.11
2023-04-18T23:54:25.982Z,11.16
2023-04-18T23:57:29.665Z,11.11
